createdAt,value
2018-10-19T00:00:25.196Z,73.65
2018-10-19T00:02:55.559Z,72.96
2018-10-19T00:05:25.288Z,71.42
2018-10-19T00:07:54.941Z,72.29
2018-10-19T00:10:24.587Z,72.19
2018-10-19T00:12:54.346Z,71.07
2018-10-19T00:15:23.968Z,71.32
2018-10-19T00:17:53.611Z,72.12
2018-10-19T00:20:23.336Z,72.07
2018-10-19T00:22:52.984Z,71.60
2018-10-19T00:25:22.640Z,70.48
2018-10-19T00:27:52.335Z,71.25
2018-10-19T00:30:22.004Z,71.32
2018-10-19T00:32:51.649Z,71.39
2018-10-19T00:35:21.428Z,71.08
2018-10-19T00:37:51.089Z,71.19
2018-10-19T00:40:20.741Z,70.65
2018-10-19T00:42:50.481Z,71.16
2018-10-19T00:45:24.457Z,70.86
2018-10-19T00:47:54.159Z,70.98
2018-10-19T00:50:23.800Z,71.73
2018-10-19T00:52:53.451Z,71.33
2018-10-19T00:55:23.220Z,71.75
2018-10-19T00:57:52.868Z,71.47
2018-10-19T01:00:22.525Z,71.87
2018-10-19T01:02:52.251Z,70.87
2018-10-19T01:05:22.160Z,70.76
2018-10-19T01:07:51.832Z,71.40
2018-10-19T01:10:23.515Z,71.01
2018-10-19T01:12:56.407Z,71.42
2018-10-19T01:15:27.429Z,71.74
2018-10-19T01:17:57.485Z,71.52
2018-10-19T01:20:27.216Z,71.92
2018-10-19T01:22:56.969Z,71.56
2018-10-19T01:25:26.608Z,71.52
2018-10-19T01:27:56.332Z,71.49
2018-10-19T01:30:25.996Z,72.24
2018-10-19T01:32:55.658Z,72.19
2018-10-19T01:35:25.379Z,72.27
2018-10-19T01:37:55.028Z,72.21
2018-10-19T01:40:24.668Z,72.00
2018-10-19T01:42:54.375Z,72.93
2018-10-19T01:45:24.041Z,73.01
2018-10-19T01:47:53.692Z,72.84
2018-10-19T01:50:23.372Z,73.38
2018-10-19T01:52:53.076Z,72.61
2018-10-19T01:55:22.720Z,72.74
2018-10-19T01:57:52.460Z,72.82
2018-10-19T02:00:22.168Z,73.69
2018-10-19T02:02:52.286Z,73.39
2018-10-19T02:05:21.976Z,73.47
2018-10-19T02:07:51.644Z,73.69
2018-10-19T02:10:21.328Z,73.01
2018-10-19T02:12:50.988Z,73.39
2018-10-19T02:15:20.698Z,73.61
2018-10-19T02:17:50.341Z,74.34
2018-10-19T02:20:20.024Z,74.16
2018-10-19T02:22:49.696Z,73.40
2018-10-19T02:25:19.389Z,72.88
2018-10-19T02:27:49.136Z,73.13
2018-10-19T02:30:18.923Z,73.84
2018-10-19T02:32:48.577Z,73.27
2018-10-19T02:35:18.341Z,73.59
2018-10-19T02:37:48.120Z,73.93
2018-10-19T02:40:17.828Z,73.93
2018-10-19T02:42:47.469Z,73.45
2018-10-19T02:45:17.256Z,74.32
2018-10-19T02:47:46.828Z,73.35
2018-10-19T02:50:16.537Z,73.81
2018-10-19T02:52:46.224Z,73.66
2018-10-19T02:55:15.909Z,73.96
2018-10-19T02:57:45.595Z,73.95
2018-10-19T03:00:15.276Z,73.21
2018-10-19T03:02:44.977Z,73.95
2018-10-19T03:05:14.756Z,73.99
2018-10-19T03:07:44.336Z,73.52
2018-10-19T03:10:14.030Z,73.49
2018-10-19T03:12:43.692Z,73.76
2018-10-19T03:15:13.440Z,74.06
2018-10-19T03:17:43.360Z,74.37
2018-10-19T03:20:13.041Z,74.46
2018-10-19T03:22:42.723Z,73.86
2018-10-19T03:25:12.417Z,73.85
2018-10-19T03:27:42.110Z,74.28
2018-10-19T03:30:11.822Z,74.97
2018-10-19T03:32:41.485Z,74.74
2018-10-19T03:35:11.186Z,74.40
2018-10-19T03:37:40.843Z,74.73
2018-10-19T03:40:10.529Z,74.86
2018-10-19T03:42:40.192Z,74.67
2018-10-19T03:45:09.952Z,75.32
2018-10-19T03:47:39.620Z,75.24
2018-10-19T03:50:09.362Z,75.38
2018-10-19T03:52:39.089Z,75.36
2018-10-19T03:55:08.840Z,76.04
2018-10-19T03:57:38.516Z,76.23
2018-10-19T04:00:08.248Z,75.75
2018-10-19T04:02:37.896Z,76.62
2018-10-19T04:05:07.696Z,75.87
2018-10-19T04:07:37.331Z,76.15
2018-10-19T04:10:07.629Z,76.21
2018-10-19T04:12:37.294Z,75.94
2018-10-19T04:15:08.045Z,76.71
2018-10-19T04:17:37.750Z,76.79
2018-10-19T04:20:07.539Z,76.17
2018-10-19T04:22:37.201Z,76.39
2018-10-19T04:25:06.996Z,76.73
2018-10-19T04:27:36.751Z,76.63
2018-10-19T04:30:07.456Z,76.67
2018-10-19T04:32:37.221Z,76.28
2018-10-19T04:35:07.193Z,76.31
2018-10-19T04:37:36.845Z,76.69
2018-10-19T04:40:11.232Z,76.25
2018-10-19T04:42:40.892Z,77.01
2018-10-19T04:45:10.650Z,76.18
2018-10-19T04:47:40.324Z,76.17
2018-10-19T04:50:10.295Z,76.80
2018-10-19T04:52:39.977Z,76.71
2018-10-19T04:55:12.992Z,77.36
2018-10-19T04:57:42.660Z,77.34
2018-10-19T05:00:12.498Z,76.66
2018-10-19T05:02:42.228Z,77.12
2018-10-19T05:05:12.038Z,76.93
2018-10-19T05:07:41.666Z,77.02
2018-10-19T05:10:11.694Z,76.96
2018-10-19T05:12:41.392Z,76.70
2018-10-19T05:15:12.136Z,77.09
2018-10-19T05:17:41.816Z,77.51
2018-10-19T05:20:12.713Z,78.88
2018-10-19T05:22:42.311Z,77.86
2018-10-19T05:25:13.046Z,77.76
2018-10-19T05:27:42.726Z,77.86
2018-10-19T05:30:13.393Z,77.46
2018-10-19T05:32:43.514Z,76.83
2018-10-19T05:35:13.271Z,76.83
2018-10-19T05:37:42.904Z,77.06
2018-10-19T05:40:12.644Z,77.21
2018-10-19T05:42:42.294Z,77.27
2018-10-19T05:45:13.198Z,77.37
2018-10-19T05:47:42.861Z,76.96
2018-10-19T05:50:13.079Z,78.05
2018-10-19T05:52:42.747Z,77.78
2018-10-19T05:55:12.420Z,78.55
2018-10-19T05:57:42.072Z,78.41
2018-10-19T06:00:12.639Z,78.67
2018-10-19T06:02:42.378Z,78.45
2018-10-19T06:05:12.077Z,79.23
2018-10-19T06:07:41.727Z,78.94
2018-10-19T06:10:11.472Z,78.95
2018-10-19T06:12:41.116Z,78.17
2018-10-19T06:15:10.840Z,78.35
2018-10-19T06:17:40.630Z,77.81
2018-10-19T06:20:10.407Z,78.56
2018-10-19T06:22:40.006Z,78.69
2018-10-19T06:25:09.697Z,78.56
2018-10-19T06:27:39.361Z,78.41
2018-10-19T06:30:09.288Z,78.35
2018-10-19T06:32:39.271Z,78.42
2018-10-19T06:35:09.080Z,78.98
2018-10-19T06:37:38.680Z,79.77
2018-10-19T06:40:08.398Z,79.68
2018-10-19T06:42:38.056Z,78.97
2018-10-19T06:45:08.066Z,79.34
2018-10-19T06:47:37.723Z,78.74
2018-10-19T06:50:09.718Z,78.63
2018-10-19T06:52:39.744Z,78.91
2018-10-19T06:55:10.968Z,79.36
2018-10-19T06:57:40.619Z,79.56
2018-10-19T07:00:10.344Z,80.62
2018-10-19T07:02:39.978Z,81.56
2018-10-19T07:05:09.730Z,80.75
2018-10-19T07:07:39.416Z,81.12
2018-10-19T07:10:10.068Z,80.17
2018-10-19T07:12:40.327Z,80.02
2018-10-19T07:15:10.825Z,79.47
2018-10-19T07:17:40.502Z,79.10
2018-10-19T07:20:11.466Z,78.89
2018-10-19T07:22:41.165Z,79.04
2018-10-19T07:25:10.842Z,79.37
2018-10-19T07:27:40.492Z,79.66
2018-10-19T07:30:10.313Z,78.53
2018-10-19T07:32:39.960Z,78.39
2018-10-19T07:35:09.710Z,78.01
2018-10-19T07:37:39.349Z,78.36
2018-10-19T07:40:09.020Z,78.34
2018-10-19T07:42:38.662Z,78.26
2018-10-19T07:45:08.373Z,78.68
2018-10-19T07:47:38.122Z,78.23
2018-10-19T07:50:08.552Z,77.44
2018-10-19T07:52:39.108Z,77.33
2018-10-19T07:55:10.080Z,77.83
2018-10-19T07:57:39.754Z,76.99
2018-10-19T08:00:10.579Z,76.48
2018-10-19T08:02:40.288Z,76.56
2018-10-19T08:05:10.610Z,76.09
2018-10-19T08:07:40.308Z,75.63
2018-10-19T08:10:10.781Z,75.56
2018-10-19T08:12:40.547Z,75.59
2018-10-19T08:15:10.535Z,76.09
2018-10-19T08:17:40.504Z,74.53
2018-10-19T08:20:10.713Z,75.63
2018-10-19T08:22:40.560Z,75.68
2018-10-19T08:25:10.276Z,75.32
2018-10-19T08:27:39.958Z,74.71
2018-10-19T08:30:09.717Z,74.65
2018-10-19T08:32:39.405Z,73.74
2018-10-19T08:35:09.212Z,72.81
2018-10-19T08:37:38.885Z,73.44
2018-10-19T08:40:08.609Z,72.34
2018-10-19T08:42:38.280Z,72.08
2018-10-19T08:45:08.289Z,70.79
2018-10-19T08:47:38.059Z,70.43
2018-10-19T08:50:08.314Z,68.87
2018-10-19T08:52:37.988Z,69.06
2018-10-19T08:55:07.742Z,69.13
2018-10-19T08:57:37.452Z,69.04
2018-10-19T09:00:09.321Z,69.06
2018-10-19T09:02:38.977Z,67.58
2018-10-19T09:05:08.800Z,67.64
2018-10-19T09:07:38.696Z,68.62
2018-10-19T09:10:08.848Z,67.14
2018-10-19T09:12:38.831Z,65.92
2018-10-19T09:15:08.576Z,66.00
2018-10-19T09:17:38.215Z,65.45
2018-10-19T09:20:08.114Z,65.41
2018-10-19T09:22:37.776Z,64.46
2018-10-19T09:25:07.580Z,63.88
2018-10-19T09:27:37.240Z,63.84
2018-10-19T09:30:07.760Z,63.90
2018-10-19T09:32:37.416Z,64.65
2018-10-19T09:35:07.221Z,63.01
2018-10-19T09:37:36.890Z,62.84
2018-10-19T09:40:06.833Z,62.94
2018-10-19T09:42:36.517Z,63.36
2018-10-19T09:45:07.282Z,63.76
2018-10-19T09:47:37.075Z,63.32
2018-10-19T09:50:07.540Z,61.83
2018-10-19T09:52:37.231Z,63.42
2018-10-19T09:55:08.337Z,62.91
2018-10-19T09:57:38.172Z,59.74
2018-10-19T10:00:15.468Z,61.55
2018-10-19T10:02:45.132Z,60.13
2018-10-19T10:05:14.893Z,60.85
2018-10-19T10:07:44.546Z,59.82
2018-10-19T10:10:14.232Z,60.62
2018-10-19T10:12:43.896Z,60.56
2018-10-19T10:15:13.742Z,59.43
2018-10-19T10:17:43.276Z,59.96
2018-10-19T10:20:12.952Z,60.19
2018-10-19T10:22:42.626Z,60.52
2018-10-19T10:25:12.356Z,60.06
2018-10-19T10:27:42.091Z,60.58
2018-10-19T10:30:12.598Z,60.18
2018-10-19T10:32:42.289Z,59.70
2018-10-19T10:35:12.105Z,61.07
2018-10-19T10:37:41.788Z,60.33
2018-10-19T10:40:11.459Z,59.05
2018-10-19T10:42:41.160Z,58.50
2018-10-19T10:45:10.836Z,58.83
2018-10-19T10:47:40.669Z,58.42
2018-10-19T10:50:10.392Z,57.29
2018-10-19T10:52:40.097Z,58.26
2018-10-19T10:55:09.827Z,58.02
2018-10-19T10:57:39.832Z,56.76
2018-10-19T11:00:09.557Z,58.27
2018-10-19T11:02:39.248Z,58.91
2018-10-19T11:05:08.936Z,56.67
2018-10-19T11:07:38.718Z,56.79
2018-10-19T11:10:09.250Z,56.93
2018-10-19T11:12:38.942Z,57.28
2018-10-19T11:15:09.324Z,56.77
2018-10-19T11:17:39.048Z,57.93
2018-10-19T11:20:08.868Z,55.30
2018-10-19T11:22:38.548Z,57.43
2018-10-19T11:25:08.443Z,56.52
2018-10-19T11:27:38.189Z,55.48
2018-10-19T11:30:08.976Z,55.49
2018-10-19T11:32:38.680Z,55.17
2018-10-19T11:35:08.685Z,57.63
2018-10-19T11:37:38.404Z,55.64
2018-10-19T11:40:29.952Z,55.93
2018-10-19T11:42:59.661Z,55.45
2018-10-19T11:45:30.785Z,55.25
2018-10-19T11:48:00.541Z,55.57
2018-10-19T11:50:30.314Z,55.70
2018-10-19T11:53:00.017Z,53.82
2018-10-19T11:55:29.733Z,53.20
2018-10-19T11:57:59.441Z,53.34
2018-10-19T12:00:29.152Z,53.70
2018-10-19T12:02:58.873Z,54.42
2018-10-19T12:05:28.563Z,54.00
2018-10-19T12:07:58.269Z,53.95
2018-10-19T12:10:27.948Z,54.43
2018-10-19T12:12:57.690Z,53.79
2018-10-19T12:15:27.327Z,54.67
2018-10-19T12:17:57.021Z,53.98
2018-10-19T12:20:26.671Z,53.28
2018-10-19T12:22:56.357Z,53.43
2018-10-19T12:25:26.013Z,53.86
2018-10-19T12:27:55.684Z,53.42
2018-10-19T12:30:25.399Z,52.89
2018-10-19T12:32:55.111Z,53.12
2018-10-19T12:35:24.863Z,52.55
2018-10-19T12:37:54.561Z,52.73
2018-10-19T12:40:24.234Z,52.40
2018-10-19T12:42:53.991Z,51.43
2018-10-19T12:46:39.428Z,52.52
2018-10-19T12:49:09.686Z,53.59
2018-10-19T12:51:39.576Z,52.64
2018-10-19T12:54:09.696Z,52.06
2018-10-19T12:56:39.412Z,53.28
2018-10-19T12:59:09.173Z,53.04
2018-10-19T13:01:38.940Z,51.98
2018-10-19T13:04:08.625Z,51.99
2018-10-19T13:06:38.361Z,50.72
2018-10-19T13:09:11.475Z,52.10
2018-10-19T13:11:41.124Z,51.40
2018-10-19T13:14:11.097Z,51.85
2018-10-19T13:16:40.766Z,51.67
2018-10-19T13:19:10.526Z,51.97
2018-10-19T13:21:40.436Z,52.38
2018-10-19T13:24:10.173Z,53.96
2018-10-19T13:26:39.859Z,53.70
2018-10-19T13:29:09.568Z,52.92
2018-10-19T13:31:39.245Z,53.26
2018-10-19T13:34:08.995Z,53.31
2018-10-19T13:36:38.638Z,53.63
2018-10-19T13:39:10.314Z,52.14
2018-10-19T13:41:40.451Z,51.20
2018-10-19T13:44:10.448Z,52.22
2018-10-19T13:46:40.135Z,50.60
2018-10-19T13:49:09.819Z,50.18
2018-10-19T13:51:39.688Z,50.89
2018-10-19T13:54:09.379Z,50.38
2018-10-19T13:56:39.282Z,50.05
2018-10-19T13:59:09.021Z,49.97
2018-10-19T14:01:38.668Z,49.25
2018-10-19T14:04:08.416Z,50.14
2018-10-19T14:06:38.101Z,48.87
2018-10-19T14:09:09.430Z,48.44
2018-10-19T14:11:39.833Z,47.87
2018-10-19T14:14:09.564Z,47.46
2018-10-19T14:16:39.306Z,48.07
2018-10-19T14:19:09.013Z,47.45
2018-10-19T14:21:38.778Z,46.71
2018-10-19T14:24:08.469Z,47.25
2018-10-19T14:26:38.241Z,46.65
2018-10-19T14:29:07.939Z,46.71
2018-10-19T14:31:37.613Z,47.38
2018-10-19T14:34:07.734Z,47.20
2018-10-19T14:36:37.427Z,47.52
2018-10-19T14:39:07.751Z,46.76
2018-10-19T14:41:37.652Z,47.50
2018-10-19T14:44:07.315Z,47.11
2018-10-19T14:46:36.997Z,47.67
2018-10-19T14:49:06.744Z,47.54
2018-10-19T14:51:36.432Z,47.76
2018-10-19T14:54:06.234Z,47.44
2018-10-19T14:56:35.902Z,47.67
2018-10-19T14:59:06.282Z,47.70
2018-10-19T15:01:35.942Z,48.31
2018-10-19T15:04:07.210Z,48.70
2018-10-19T15:06:37.267Z,48.82
2018-10-19T15:09:10.057Z,49.27
2018-10-19T15:11:40.364Z,49.28
2018-10-19T15:14:10.053Z,50.62
2018-10-19T15:16:40.123Z,50.96
2018-10-19T15:19:09.808Z,50.97
2018-10-19T15:21:39.551Z,50.76
2018-10-19T15:24:09.273Z,51.60
2018-10-19T15:26:38.953Z,52.31
2018-10-19T15:29:08.802Z,51.76
2018-10-19T15:31:38.453Z,52.37
2018-10-19T15:34:08.208Z,52.48
2018-10-19T15:36:37.956Z,52.75
2018-10-19T15:39:10.735Z,52.84
2018-10-19T15:41:40.875Z,53.03
2018-10-19T15:44:10.826Z,53.70
2018-10-19T15:46:40.620Z,53.94
2018-10-19T15:49:10.292Z,53.99
2018-10-19T15:51:39.958Z,53.69
2018-10-19T15:54:09.745Z,55.20
2018-10-19T15:56:39.419Z,54.19
2018-10-19T15:59:09.076Z,55.34
2018-10-19T16:01:38.752Z,55.31
2018-10-19T16:04:08.521Z,55.50
2018-10-19T16:06:38.222Z,55.85
2018-10-19T16:09:11.345Z,55.30
2018-10-19T16:11:40.915Z,55.67
2018-10-19T16:14:10.613Z,56.56
2018-10-19T16:16:40.356Z,56.08
2018-10-19T16:19:10.210Z,56.79
2018-10-19T16:21:39.889Z,56.07
2018-10-19T16:24:09.773Z,56.71
2018-10-19T16:26:39.449Z,56.97
2018-10-19T16:29:09.385Z,56.61
2018-10-19T16:31:39.197Z,56.40
2018-10-19T16:34:08.891Z,57.22
2018-10-19T16:36:38.592Z,57.42
2018-10-19T16:39:09.428Z,56.95
2018-10-19T16:41:39.221Z,57.05
2018-10-19T16:44:08.888Z,57.57
2018-10-19T16:46:38.572Z,57.45
2018-10-19T16:49:08.298Z,58.11
2018-10-19T16:51:38.028Z,58.10
2018-10-19T16:54:07.914Z,58.26
2018-10-19T16:56:37.520Z,58.43
2018-10-19T16:59:07.220Z,58.73
2018-10-19T17:01:36.917Z,58.60
2018-10-19T17:04:06.995Z,58.41
2018-10-19T17:06:36.654Z,58.29
2018-10-19T17:09:11.290Z,58.81
2018-10-19T17:11:41.271Z,58.79
2018-10-19T17:14:11.451Z,58.43
2018-10-19T17:16:41.148Z,59.59
2018-10-19T17:19:10.967Z,59.40
2018-10-19T17:21:40.724Z,59.32
2018-10-19T17:24:10.391Z,59.82
2018-10-19T17:26:40.168Z,59.64
2018-10-19T17:29:09.895Z,59.28
2018-10-19T17:31:39.600Z,58.89
2018-10-19T17:34:09.334Z,59.74
2018-10-19T17:36:39.013Z,60.11
2018-10-19T17:39:10.462Z,59.73
2018-10-19T17:41:40.116Z,60.48
2018-10-19T17:44:09.852Z,60.52
2018-10-19T17:46:39.560Z,60.83
2018-10-19T17:49:09.340Z,60.24
2018-10-19T17:51:38.972Z,60.51
2018-10-19T17:54:08.782Z,60.61
2018-10-19T17:56:38.397Z,60.50
2018-10-19T17:59:08.199Z,60.58
2018-10-19T18:01:37.864Z,62.29
2018-10-19T18:04:07.556Z,61.60
2018-10-19T18:06:37.270Z,61.35
2018-10-19T18:09:10.080Z,62.05
2018-10-19T18:11:39.821Z,62.41
2018-10-19T18:14:09.731Z,62.17
2018-10-19T18:16:39.439Z,61.87
2018-10-19T18:19:09.226Z,63.01
2018-10-19T18:21:39.308Z,63.11
2018-10-19T18:24:08.969Z,63.17
2018-10-19T18:26:38.704Z,62.46
2018-10-19T18:29:08.479Z,62.81
2018-10-19T18:31:38.105Z,63.17
2018-10-19T18:34:07.824Z,62.59
2018-10-19T18:36:37.860Z,64.69
2018-10-19T18:39:10.675Z,64.73
2018-10-19T18:41:40.435Z,65.30
2018-10-19T18:44:10.185Z,64.86
2018-10-19T18:46:39.815Z,64.79
2018-10-19T18:49:09.845Z,64.76
2018-10-19T18:51:39.502Z,63.68
2018-10-19T18:54:09.252Z,64.87
2018-10-19T18:56:38.937Z,63.85
2018-10-19T18:59:08.699Z,65.30
2018-10-19T19:01:38.388Z,64.93
2018-10-19T19:04:08.057Z,64.65
2018-10-19T19:06:37.722Z,64.86
2018-10-19T19:09:10.516Z,64.73
2018-10-19T19:11:41.156Z,64.62
2018-10-19T19:14:10.934Z,64.78
2018-10-19T19:16:40.585Z,64.82
2018-10-19T19:19:10.324Z,64.95
2018-10-19T19:21:40.107Z,64.58
2018-10-19T19:24:15.041Z,64.69
2018-10-19T19:26:44.724Z,64.67
2018-10-19T19:29:14.494Z,64.97
2018-10-19T19:31:44.385Z,65.29
2018-10-19T19:34:18.732Z,64.25
2018-10-19T19:36:48.431Z,64.12
2018-10-19T19:39:18.116Z,65.25
2018-10-19T19:41:52.963Z,65.39
2018-10-19T19:44:22.645Z,65.91
2018-10-19T19:46:52.378Z,65.11
2018-10-19T19:49:39.389Z,64.95
2018-10-19T19:52:09.118Z,64.67
2018-10-19T19:54:38.784Z,64.71
2018-10-19T19:57:08.483Z,64.32
2018-10-19T19:59:38.195Z,65.24
2018-10-19T20:02:07.983Z,64.56
2018-10-19T20:04:38.017Z,64.90
2018-10-19T20:07:07.768Z,64.75
2018-10-19T20:09:37.428Z,66.21
2018-10-19T20:12:07.187Z,67.00
2018-10-19T20:14:36.896Z,66.79
2018-10-19T20:17:06.656Z,66.47
2018-10-19T20:19:36.371Z,66.54
2018-10-19T20:22:06.375Z,66.53
2018-10-19T20:24:36.106Z,66.53
2018-10-19T20:27:05.977Z,66.18
2018-10-19T20:29:35.636Z,66.95
2018-10-19T20:32:05.405Z,66.33
2018-10-19T20:34:35.077Z,66.49
2018-10-19T20:37:04.856Z,66.72
2018-10-19T20:39:34.597Z,67.08
2018-10-19T20:42:04.283Z,67.06
2018-10-19T20:44:33.980Z,67.11
2018-10-19T20:47:03.668Z,67.59
2018-10-19T20:49:33.364Z,67.57
2018-10-19T20:52:03.032Z,67.88
2018-10-19T20:54:32.744Z,67.79
2018-10-19T20:57:02.429Z,67.65
2018-10-19T20:59:32.348Z,67.40
2018-10-19T21:02:02.069Z,67.83
2018-10-19T21:04:31.775Z,67.87
2018-10-19T21:07:01.430Z,67.99
2018-10-19T21:09:31.132Z,68.29
2018-10-19T21:12:00.809Z,68.33
2018-10-19T21:14:30.483Z,68.50
2018-10-19T21:17:00.141Z,67.39
2018-10-19T21:19:29.921Z,67.57
2018-10-19T21:21:59.626Z,68.32
2018-10-19T21:24:29.331Z,69.35
2018-10-19T21:26:58.997Z,69.03
2018-10-19T21:29:28.675Z,69.28
2018-10-19T21:31:58.365Z,69.65
2018-10-19T21:34:28.052Z,69.10
2018-10-19T21:36:57.700Z,69.42
2018-10-19T21:39:27.431Z,70.09
2018-10-19T21:41:57.100Z,70.75
2018-10-19T21:44:26.806Z,69.92
2018-10-19T21:46:56.472Z,69.42
2018-10-19T21:49:26.162Z,69.91
2018-10-19T21:51:55.816Z,69.83
2018-10-19T21:54:25.492Z,69.53
2018-10-19T21:56:55.180Z,69.73
2018-10-19T21:59:24.873Z,69.00
2018-10-19T22:01:54.568Z,69.11
2018-10-19T22:04:24.284Z,69.34
2018-10-19T22:06:53.993Z,70.21
2018-10-19T22:09:23.654Z,69.83
2018-10-19T22:11:53.352Z,70.30
2018-10-19T22:14:23.022Z,69.84
2018-10-19T22:16:52.809Z,70.06
2018-10-19T22:19:22.480Z,70.57
2018-10-19T22:21:52.171Z,70.33
2018-10-19T22:24:21.832Z,70.54
2018-10-19T22:26:51.500Z,70.46
2018-10-19T22:29:21.128Z,71.25
2018-10-19T22:31:50.804Z,71.68
2018-10-19T22:34:20.505Z,72.15
2018-10-19T22:36:50.190Z,72.96
2018-10-19T22:39:19.860Z,71.86
2018-10-19T22:41:49.536Z,72.39
2018-10-19T22:44:19.172Z,71.79
2018-10-19T22:46:48.840Z,72.09
2018-10-19T22:49:18.484Z,72.10
2018-10-19T22:51:48.140Z,72.74
2018-10-19T22:54:17.784Z,71.93
2018-10-19T22:56:47.609Z,72.70
2018-10-19T22:59:17.252Z,72.70
2018-10-19T23:01:47.012Z,72.01
2018-10-19T23:04:16.900Z,72.33
2018-10-19T23:06:46.633Z,72.50
2018-10-19T23:09:16.395Z,72.45
2018-10-19T23:11:46.056Z,72.57
2018-10-19T23:14:15.704Z,72.04
2018-10-19T23:16:45.372Z,72.84
2018-10-19T23:19:15.072Z,72.32
2018-10-19T23:21:44.780Z,72.80
2018-10-19T23:24:14.414Z,73.12
2018-10-19T23:26:44.100Z,72.55
2018-10-19T23:29:13.801Z,72.42
2018-10-19T23:31:43.744Z,72.80
2018-10-19T23:34:13.245Z,72.45
2018-10-19T23:36:42.975Z,73.35
2018-10-19T23:39:13.291Z,73.56
2018-10-19T23:41:42.975Z,73.04
2018-10-19T23:44:12.639Z,73.80
2018-10-19T23:46:42.337Z,74.10
2018-10-19T23:49:12.048Z,74.89
2018-10-19T23:51:41.680Z,74.66
2018-10-19T23:54:11.349Z,74.47
2018-10-19T23:56:41.200Z,74.28
2018-10-19T23:59:10.982Z,76.23
